createdAt,value
2023-11-10T00:01:23.071Z,64.44
2023-11-10T00:04:07.864Z,64.12
2023-11-10T00:06:44.877Z,64.21
2023-11-10T00:09:35.886Z,64.11
2023-11-10T00:12:26.716Z,64.44
2023-11-10T00:14:59.972Z,64.89
2023-11-10T00:17:36.059Z,64.70
2023-11-10T00:20:18.906Z,64.27
2023-11-10T00:22:55.581Z,64.31
2023-11-10T00:25:28.846Z,64.63
2023-11-10T00:28:11.132Z,64.53
2023-11-10T00:30:43.883Z,65.35
2023-11-10T00:33:26.802Z,65.45
2023-11-10T00:35:58.360Z,65.49
2023-11-10T00:38:52.141Z,65.18
2023-11-10T00:41:26.674Z,65.36
2023-11-10T00:44:02.476Z,65.30
2023-11-10T00:46:41.617Z,65.24
2023-11-10T00:49:15.499Z,65.67
2023-11-10T00:51:48.133Z,65.50
2023-11-10T00:54:25.011Z,65.34
2023-11-10T00:57:00.576Z,65.19
2023-11-10T00:59:35.236Z,65.06
2023-11-10T01:02:08.476Z,65.42
2023-11-10T01:04:45.780Z,65.78
2023-11-10T01:07:22.128Z,65.73
2023-11-10T01:09:56.631Z,65.06
2023-11-10T01:12:35.393Z,64.85
2023-11-10T01:15:13.583Z,64.86
2023-11-10T01:17:45.622Z,65.07
2023-11-10T01:20:17.285Z,65.04
2023-11-10T01:22:48.788Z,65.42
2023-11-10T01:25:20.273Z,65.86
2023-11-10T01:27:51.665Z,65.22
2023-11-10T01:30:28.200Z,65.15
2023-11-10T01:33:02.605Z,65.50
2023-11-10T01:35:34.235Z,65.09
2023-11-10T01:38:06.690Z,65.04
2023-11-10T01:40:44.749Z,64.72
2023-11-10T01:43:17.463Z,64.92
2023-11-10T01:45:49.151Z,64.88
2023-11-10T01:48:22.099Z,64.62
2023-11-10T01:50:53.999Z,65.14
2023-11-10T01:53:26.029Z,64.65
2023-11-10T01:55:58.907Z,64.31
2023-11-10T01:58:31.293Z,64.48
2023-11-10T02:01:03.379Z,64.67
2023-11-10T02:03:34.912Z,65.39
2023-11-10T02:06:42.495Z,65.41
2023-11-10T02:19:49.543Z,65.03
2023-11-10T02:22:20.880Z,64.50
2023-11-10T02:24:55.216Z,64.36
2023-11-10T02:27:28.419Z,64.72
2023-11-10T02:29:59.884Z,64.84
2023-11-10T02:32:31.635Z,65.24
2023-11-10T02:35:03.283Z,65.25
2023-11-10T02:37:34.800Z,64.96
2023-11-10T02:40:08.209Z,64.86
2023-11-10T02:42:40.042Z,64.74
2023-11-10T02:45:13.506Z,64.83
2023-11-10T02:47:45.010Z,64.43
2023-11-10T02:50:19.250Z,64.68
2023-11-10T02:52:52.062Z,65.33
2023-11-10T02:55:23.443Z,65.58
2023-11-10T02:57:54.874Z,65.44
2023-11-10T03:00:26.864Z,64.80
2023-11-10T03:02:58.227Z,65.26
2023-11-10T03:05:29.667Z,65.30
2023-11-10T03:08:01.137Z,65.54
2023-11-10T03:10:32.659Z,65.57
2023-11-10T03:13:04.886Z,65.78
2023-11-10T03:15:36.426Z,65.39
2023-11-10T03:18:08.293Z,65.06
2023-11-10T03:20:41.156Z,65.11
2023-11-10T03:23:12.470Z,64.91
2023-11-10T03:25:44.051Z,64.63
2023-11-10T03:28:15.485Z,64.78
2023-11-10T03:30:47.041Z,65.27
2023-11-10T03:33:19.254Z,64.97
2023-11-10T03:35:50.830Z,64.70
2023-11-10T03:38:22.234Z,64.56
2023-11-10T03:40:55.157Z,65.11
2023-11-10T03:43:26.877Z,65.71
2023-11-10T03:45:58.719Z,65.37
2023-11-10T03:48:30.590Z,65.32
2023-11-10T03:51:01.897Z,64.92
2023-11-10T03:53:33.316Z,65.06
2023-11-10T03:56:04.936Z,65.04
2023-11-10T03:58:36.826Z,65.18
2023-11-10T04:01:13.159Z,65.04
2023-11-10T04:03:45.799Z,64.61
2023-11-10T04:06:19.022Z,64.97
2023-11-10T04:08:53.141Z,65.26
2023-11-10T04:11:25.162Z,65.53
2023-11-10T04:13:56.592Z,65.01
2023-11-10T04:16:28.688Z,64.40
2023-11-10T04:19:00.318Z,64.72
2023-11-10T04:21:32.342Z,65.34
2023-11-10T04:24:05.290Z,65.17
2023-11-10T04:26:37.021Z,65.17
2023-11-10T04:29:10.465Z,64.82
2023-11-10T04:31:42.265Z,65.01
2023-11-10T04:34:13.745Z,65.40
2023-11-10T04:36:47.734Z,65.54
2023-11-10T04:39:19.724Z,65.62
2023-11-10T04:41:51.355Z,65.91
2023-11-10T04:44:24.716Z,66.41
2023-11-10T04:46:56.090Z,66.11
2023-11-10T04:49:27.721Z,66.08
2023-11-10T04:51:59.523Z,66.08
2023-11-10T04:54:31.156Z,65.99
2023-11-10T04:57:02.626Z,66.15
2023-11-10T04:59:34.469Z,66.22
2023-11-10T05:02:06.062Z,66.00
2023-11-10T05:04:40.850Z,65.90
2023-11-10T05:07:10.559Z,66.18
2023-11-10T05:09:42.059Z,65.92
2023-11-10T05:12:13.908Z,66.42
2023-11-10T05:14:45.683Z,66.11
2023-11-10T05:17:18.195Z,66.55
2023-11-10T05:19:49.829Z,66.47
2023-11-10T05:22:21.484Z,66.40
2023-11-10T05:24:54.304Z,66.27
2023-11-10T05:27:25.880Z,66.41
2023-11-10T05:29:57.553Z,66.35
2023-11-10T05:32:29.215Z,66.85
2023-11-10T05:35:00.687Z,66.80
2023-11-10T05:37:32.333Z,66.96
2023-11-10T05:40:03.800Z,66.83
2023-11-10T05:42:35.229Z,66.94
2023-11-10T05:45:07.823Z,66.93
2023-11-10T05:47:39.570Z,66.67
2023-11-10T05:50:12.525Z,67.08
2023-11-10T05:52:44.043Z,67.17
2023-11-10T05:55:15.532Z,67.22
2023-11-10T05:57:49.567Z,67.48
2023-11-10T06:00:23.891Z,67.29
2023-11-10T06:02:57.502Z,66.92
2023-11-10T06:05:31.258Z,67.04
2023-11-10T06:08:02.849Z,67.05
2023-11-10T06:10:35.321Z,67.19
2023-11-10T06:13:07.473Z,67.73
2023-11-10T06:15:39.672Z,67.50
2023-11-10T06:18:11.319Z,67.88
2023-11-10T06:20:42.907Z,68.17
2023-11-10T06:23:14.379Z,68.50
2023-11-10T06:25:46.135Z,68.59
2023-11-10T06:28:17.567Z,69.00
2023-11-10T06:30:49.277Z,68.65
2023-11-10T06:33:21.044Z,68.39
2023-11-10T06:35:52.630Z,68.42
2023-11-10T06:38:24.190Z,68.25
2023-11-10T06:40:55.868Z,68.23
2023-11-10T06:43:28.094Z,68.62
2023-11-10T06:45:59.518Z,68.95
2023-11-10T06:48:31.178Z,69.49
2023-11-10T06:51:03.780Z,69.45
2023-11-10T06:53:35.218Z,68.95
2023-11-10T06:56:07.178Z,69.04
2023-11-10T06:58:38.995Z,68.72
2023-11-10T07:01:11.272Z,68.72
2023-11-10T07:03:45.326Z,68.28
2023-11-10T07:06:19.119Z,68.25
2023-11-10T07:08:50.878Z,67.98
2023-11-10T07:11:23.153Z,68.39
2023-11-10T07:13:55.862Z,68.55
2023-11-10T07:16:28.330Z,68.21
2023-11-10T07:19:01.528Z,68.00
2023-11-10T07:21:33.341Z,68.44
2023-11-10T07:24:05.274Z,68.69
2023-11-10T07:26:37.287Z,68.45
2023-11-10T07:29:09.129Z,67.99
2023-11-10T07:31:40.933Z,68.26
2023-11-10T07:34:12.453Z,68.47
2023-11-10T07:36:44.114Z,68.13
2023-11-10T07:39:15.772Z,67.99
2023-11-10T07:41:47.431Z,67.95
2023-11-10T07:44:19.583Z,68.40
2023-11-10T07:46:52.547Z,68.46
2023-11-10T07:49:24.270Z,68.11
2023-11-10T07:51:55.865Z,67.94
2023-11-10T07:54:30.642Z,67.63
2023-11-10T07:57:00.435Z,67.11
2023-11-10T07:59:31.805Z,67.39
2023-11-10T08:02:04.122Z,67.57
2023-11-10T08:04:38.066Z,67.63
2023-11-10T08:07:11.613Z,67.32
2023-11-10T08:09:43.084Z,67.26
2023-11-10T08:12:15.107Z,67.07
2023-11-10T08:14:46.980Z,67.06
2023-11-10T08:17:18.505Z,67.15
2023-11-10T08:19:51.564Z,67.23
2023-11-10T08:22:24.130Z,67.33
2023-11-10T08:24:57.668Z,67.24
2023-11-10T08:27:31.100Z,67.17
2023-11-10T08:30:04.713Z,67.08
2023-11-10T08:32:36.402Z,66.72
2023-11-10T08:35:10.189Z,66.54
2023-11-10T08:37:43.087Z,66.59
2023-11-10T08:40:15.545Z,66.17
2023-11-10T08:42:47.217Z,66.01
2023-11-10T08:45:19.341Z,65.71
2023-11-10T08:47:51.025Z,65.20
2023-11-10T08:50:22.673Z,64.86
2023-11-10T08:52:54.623Z,64.51
2023-11-10T08:55:26.503Z,64.34
2023-11-10T08:57:58.000Z,63.99
2023-11-10T09:00:29.752Z,63.98
2023-11-10T09:03:02.751Z,63.83
2023-11-10T09:05:34.564Z,63.47
2023-11-10T09:08:06.209Z,62.84
2023-11-10T09:10:37.845Z,62.60
2023-11-10T09:13:09.580Z,61.91
2023-11-10T09:15:45.706Z,61.88
2023-11-10T09:18:19.174Z,62.08
2023-11-10T09:20:50.811Z,62.30
2023-11-10T09:23:23.630Z,62.71
2023-11-10T09:25:55.538Z,62.62
2023-11-10T09:28:26.966Z,62.13
2023-11-10T09:30:58.643Z,61.90
2023-11-10T09:33:30.444Z,61.80
2023-11-10T09:36:01.909Z,61.27
2023-11-10T09:38:33.351Z,61.44
2023-11-10T09:41:05.448Z,61.65
2023-11-10T09:43:37.743Z,61.66
2023-11-10T09:46:11.192Z,61.80
2023-11-10T09:48:44.574Z,61.92
2023-11-10T09:51:16.520Z,61.53
2023-11-10T09:53:50.366Z,61.78
2023-11-10T09:56:23.815Z,62.03
2023-11-10T09:58:55.576Z,62.22
2023-11-10T10:01:27.171Z,62.02
2023-11-10T10:03:58.919Z,62.33
2023-11-10T10:06:31.227Z,62.73
2023-11-10T10:09:07.689Z,62.82
2023-11-10T10:11:41.174Z,62.72
2023-11-10T10:14:14.223Z,63.06
2023-11-10T10:17:00.131Z,63.39
2023-11-10T10:19:32.519Z,63.53
2023-11-10T10:22:04.468Z,63.40
2023-11-10T10:24:37.763Z,63.30
2023-11-10T10:27:09.315Z,63.21
2023-11-10T10:29:41.199Z,62.86
2023-11-10T10:32:12.916Z,63.10
2023-11-10T10:34:45.114Z,63.00
2023-11-10T10:37:18.719Z,62.85
2023-11-10T10:39:51.174Z,63.03
2023-11-10T10:42:26.399Z,62.76
2023-11-10T10:45:00.214Z,62.69
2023-11-10T10:47:34.003Z,62.40
2023-11-10T10:50:07.300Z,62.15
2023-11-10T10:52:39.206Z,62.35
2023-11-10T10:55:13.358Z,62.56
2023-11-10T10:57:46.778Z,62.72
2023-11-10T11:00:20.963Z,62.56
2023-11-10T11:02:57.797Z,62.57
2023-11-10T11:05:49.437Z,62.43
2023-11-10T11:08:46.133Z,62.31
2023-11-10T11:11:48.298Z,62.07
2023-11-10T11:14:42.914Z,62.28
2023-11-10T11:17:39.186Z,62.44
2023-11-10T11:20:15.228Z,62.50
2023-11-10T11:22:47.506Z,61.71
2023-11-10T11:25:21.337Z,61.34
2023-11-10T11:28:01.987Z,61.34
2023-11-10T11:30:42.610Z,61.62
2023-11-10T11:33:15.660Z,62.13
2023-11-10T11:35:51.533Z,62.12
2023-11-10T11:38:32.753Z,62.43
2023-11-10T11:41:08.867Z,62.19
2023-11-10T11:43:49.396Z,62.37
2023-11-10T11:46:21.044Z,62.49
2023-11-10T11:48:52.667Z,62.36
2023-11-10T11:51:25.088Z,62.69
2023-11-10T11:53:56.618Z,62.22
2023-11-10T11:56:28.978Z,61.82
2023-11-10T11:59:00.341Z,61.75
2023-11-10T12:01:31.852Z,61.58
2023-11-10T12:04:05.274Z,61.76
2023-11-10T12:06:38.434Z,61.86
2023-11-10T12:09:10.354Z,62.15
2023-11-10T12:11:42.328Z,62.59
2023-11-10T12:14:13.940Z,62.72
2023-11-10T12:16:49.026Z,62.48
2023-11-10T12:19:21.584Z,62.47
2023-11-10T12:21:53.302Z,62.52
2023-11-10T12:24:31.752Z,62.40
2023-11-10T12:27:03.553Z,62.78
2023-11-10T12:29:35.058Z,62.65
2023-11-10T12:32:07.338Z,62.73
2023-11-10T12:34:41.479Z,62.42
2023-11-10T12:37:15.273Z,62.92
2023-11-10T12:39:48.179Z,62.85
2023-11-10T12:42:21.333Z,62.94
2023-11-10T12:45:00.145Z,62.79
2023-11-10T12:47:40.707Z,62.77
2023-11-10T12:50:17.482Z,62.63
2023-11-10T12:52:54.145Z,62.41
2023-11-10T12:55:25.902Z,62.56
2023-11-10T12:57:59.188Z,62.59
2023-11-10T13:00:31.184Z,63.26
2023-11-10T13:03:04.872Z,62.94
2023-11-10T13:05:36.950Z,62.70
2023-11-10T13:08:09.340Z,62.97
2023-11-10T13:10:40.898Z,63.23
2023-11-10T13:13:12.740Z,63.24
2023-11-10T13:15:44.530Z,63.25
2023-11-10T13:18:18.242Z,62.74
2023-11-10T13:20:50.716Z,63.13
2023-11-10T13:23:22.218Z,63.17
2023-11-10T13:25:53.799Z,63.82
2023-11-10T13:28:35.083Z,63.62
2023-11-10T13:31:24.784Z,63.28
2023-11-10T13:34:01.257Z,62.84
2023-11-10T13:36:32.877Z,63.31
2023-11-10T13:39:04.504Z,63.04
2023-11-10T13:41:43.609Z,62.87
2023-11-10T13:44:20.025Z,62.89
2023-11-10T13:46:51.814Z,62.53
2023-11-10T13:49:23.854Z,62.05
2023-11-10T13:51:57.078Z,62.09
2023-11-10T13:54:29.669Z,62.34
2023-11-10T13:57:05.645Z,62.49
2023-11-10T13:59:40.868Z,62.15
2023-11-10T14:02:12.827Z,62.17
2023-11-10T14:04:44.470Z,62.06
2023-11-10T14:07:16.889Z,62.10
2023-11-10T14:09:49.395Z,62.19
2023-11-10T14:12:21.423Z,62.00
2023-11-10T14:14:54.478Z,62.13
2023-11-10T14:17:26.042Z,61.96
2023-11-10T14:19:57.491Z,61.99
2023-11-10T14:22:30.666Z,62.05
2023-11-10T14:25:03.157Z,61.86
2023-11-10T14:27:34.801Z,61.92
2023-11-10T14:30:09.718Z,61.96
2023-11-10T14:32:41.626Z,62.34
2023-11-10T14:35:13.995Z,62.13
2023-11-10T14:37:45.746Z,61.96
2023-11-10T14:40:20.043Z,62.22
2023-11-10T14:42:51.756Z,62.30
2023-11-10T14:45:24.041Z,62.22
2023-11-10T14:47:56.989Z,61.96
2023-11-10T14:50:38.505Z,61.75
2023-11-10T14:53:18.101Z,61.97
2023-11-10T14:55:50.672Z,62.15
2023-11-10T14:58:22.582Z,62.35
2023-11-10T15:00:55.080Z,62.17
2023-11-10T15:03:26.688Z,62.31
2023-11-10T15:05:58.596Z,62.26
2023-11-10T15:08:30.030Z,62.82
2023-11-10T15:11:04.130Z,62.72
2023-11-10T15:13:35.664Z,62.93
2023-11-10T15:16:08.609Z,62.85
2023-11-10T15:18:41.097Z,63.48
2023-11-10T15:21:12.811Z,63.26
2023-11-10T15:23:44.265Z,63.48
2023-11-10T15:26:15.885Z,63.60
2023-11-10T15:28:50.236Z,63.41
2023-11-10T15:31:23.321Z,63.42
2023-11-10T15:33:55.096Z,63.53
2023-11-10T15:36:30.546Z,63.85
2023-11-10T15:39:10.041Z,63.71
2023-11-10T15:41:48.293Z,64.13
2023-11-10T15:44:19.785Z,64.34
2023-11-10T15:46:53.081Z,64.31
2023-11-10T15:49:25.092Z,64.24
2023-11-10T15:51:57.887Z,64.30
2023-11-10T15:54:30.001Z,64.41
2023-11-10T15:57:01.450Z,64.42
2023-11-10T15:59:33.366Z,64.78
2023-11-10T16:02:08.084Z,64.47
2023-11-10T16:04:39.799Z,64.30
2023-11-10T16:07:11.506Z,64.37
2023-11-10T16:09:46.390Z,64.41
2023-11-10T16:12:17.984Z,64.80
2023-11-10T16:14:51.345Z,64.91
2023-11-10T16:17:23.170Z,65.14
2023-11-10T16:19:54.822Z,64.98
2023-11-10T16:22:26.280Z,65.00
2023-11-10T16:24:58.029Z,65.11
2023-11-10T16:27:30.029Z,65.77
2023-11-10T16:30:01.657Z,65.71
2023-11-10T16:32:34.644Z,65.80
2023-11-10T16:35:07.691Z,65.98
2023-11-10T16:37:40.782Z,65.95
2023-11-10T16:40:14.682Z,65.72
2023-11-10T16:42:47.352Z,65.86
2023-11-10T16:45:19.436Z,65.86
2023-11-10T16:47:52.421Z,65.60
2023-11-10T16:50:24.599Z,65.26
2023-11-10T16:52:56.346Z,65.16
2023-11-10T16:55:27.956Z,65.44
2023-11-10T16:57:59.954Z,66.01
2023-11-10T17:00:40.121Z,65.92
2023-11-10T17:03:15.535Z,65.74
2023-11-10T17:05:51.664Z,65.75
2023-11-10T17:08:23.624Z,66.13
2023-11-10T17:10:55.948Z,66.03
2023-11-10T17:13:36.900Z,65.78
2023-11-10T17:16:09.623Z,66.08
2023-11-10T17:18:41.924Z,66.28
2023-11-10T17:21:13.935Z,66.45
2023-11-10T17:23:45.472Z,66.44
2023-11-10T17:26:17.355Z,66.40
2023-11-10T17:28:48.960Z,66.60
2023-11-10T17:31:20.762Z,66.94
2023-11-10T17:33:53.364Z,67.31
2023-11-10T17:36:25.436Z,66.89
2023-11-10T17:38:58.250Z,66.81
2023-11-10T17:41:30.180Z,66.70
2023-11-10T17:44:03.175Z,66.41
2023-11-10T17:46:35.334Z,66.33
2023-11-10T17:49:15.431Z,66.39
2023-11-10T17:51:47.130Z,66.56
2023-11-10T17:54:19.397Z,66.91
2023-11-10T17:56:51.363Z,67.07
2023-11-10T17:59:24.729Z,66.89
2023-11-10T18:01:58.448Z,66.62
2023-11-10T18:04:30.476Z,66.71
2023-11-10T18:07:02.705Z,67.23
2023-11-10T18:09:35.035Z,67.39
2023-11-10T18:12:07.788Z,67.64
2023-11-10T18:14:39.548Z,67.48
2023-11-10T18:17:11.286Z,67.43
2023-11-10T18:19:45.828Z,67.80
2023-11-10T18:22:18.486Z,68.21
2023-11-10T18:24:55.555Z,68.25
2023-11-10T18:27:32.912Z,68.41
2023-11-10T18:30:16.378Z,68.44
2023-11-10T18:33:10.100Z,68.39
2023-11-10T18:35:51.389Z,68.50
2023-11-10T18:38:28.635Z,68.50
2023-11-10T18:41:03.547Z,68.28
2023-11-10T18:43:45.517Z,68.26
2023-11-10T18:46:27.692Z,67.97
2023-11-10T18:49:02.421Z,67.77
2023-11-10T18:51:43.043Z,67.95
2023-11-10T18:54:34.549Z,67.79
2023-11-10T18:57:16.434Z,67.92
2023-11-10T19:00:22.004Z,68.11
2023-11-10T19:03:07.131Z,68.00
2023-11-10T19:05:42.491Z,68.49
2023-11-10T19:08:20.758Z,68.52
2023-11-10T19:10:55.996Z,68.27
2023-11-10T19:13:31.857Z,68.66
2023-11-10T19:16:08.181Z,68.63
2023-11-10T19:18:44.681Z,68.75
2023-11-10T19:21:24.150Z,68.69
2023-11-10T19:24:00.135Z,68.67
2023-11-10T19:26:35.663Z,69.00
2023-11-10T19:29:10.622Z,69.08
2023-11-10T19:31:48.372Z,69.20
2023-11-10T19:34:23.394Z,69.07
2023-11-10T19:36:59.180Z,68.81
2023-11-10T19:39:35.618Z,69.49
2023-11-10T19:42:12.357Z,69.44
2023-11-10T19:44:49.481Z,69.69
2023-11-10T19:47:25.779Z,69.80
2023-11-10T19:50:01.563Z,70.13
2023-11-10T19:52:36.321Z,69.96
2023-11-10T19:55:09.719Z,69.96
2023-11-10T19:57:46.954Z,69.35
2023-11-10T20:03:02.841Z,69.66
2023-11-10T20:05:38.817Z,69.49
2023-11-10T20:08:15.055Z,70.07
2023-11-10T20:10:51.255Z,70.29
2023-11-10T20:13:26.887Z,70.42
2023-11-10T20:16:03.683Z,70.10
2023-11-10T20:18:41.480Z,70.34
2023-11-10T20:21:21.477Z,70.24
2023-11-10T20:23:58.905Z,69.56
2023-11-10T20:26:33.230Z,69.11
2023-11-10T20:29:08.353Z,69.06
2023-11-10T20:31:43.283Z,69.20
2023-11-10T20:34:18.386Z,69.34
2023-11-10T20:36:53.488Z,69.61
2023-11-10T20:39:28.556Z,69.63
2023-11-10T20:42:03.596Z,69.85
2023-11-10T20:44:40.817Z,69.87
2023-11-10T20:47:17.805Z,69.80
2023-11-10T20:49:55.898Z,70.01
2023-11-10T20:52:32.005Z,70.25
2023-11-10T20:55:07.063Z,70.29
2023-11-10T20:57:41.514Z,69.99
2023-11-10T21:00:17.298Z,69.37
2023-11-10T21:02:50.169Z,69.88
2023-11-10T21:05:22.496Z,70.04
2023-11-10T21:07:55.295Z,69.54
2023-11-10T21:10:27.729Z,69.43
2023-11-10T21:12:59.364Z,69.81
2023-11-10T21:15:34.016Z,69.80
2023-11-10T21:18:07.316Z,70.01
2023-11-10T21:20:39.501Z,70.40
2023-11-10T21:23:13.061Z,70.66
2023-11-10T21:25:45.941Z,70.93
2023-11-10T21:28:18.651Z,70.68
2023-11-10T21:30:50.757Z,70.41
2023-11-10T21:33:26.208Z,70.58
2023-11-10T21:35:58.403Z,70.44
2023-11-10T21:38:30.109Z,70.64
2023-11-10T21:41:01.771Z,71.10
2023-11-10T21:43:33.764Z,71.25
2023-11-10T21:46:05.825Z,71.54
2023-11-10T21:48:38.387Z,71.40
2023-11-10T21:51:10.279Z,71.36
2023-11-10T21:53:41.700Z,71.44
2023-11-10T21:56:17.729Z,71.96
2023-11-10T21:58:49.115Z,72.15
2023-11-10T22:01:20.593Z,72.23
2023-11-10T22:03:52.586Z,72.11
2023-11-10T22:06:25.140Z,72.02
2023-11-10T22:08:56.623Z,72.13
2023-11-10T22:11:28.077Z,72.29
2023-11-10T22:13:59.696Z,72.15
2023-11-10T22:16:31.312Z,72.42
2023-11-10T22:19:07.464Z,72.05
2023-11-10T22:21:44.045Z,72.09
2023-11-10T22:24:16.156Z,71.69
2023-11-10T22:26:47.908Z,71.48
2023-11-10T22:29:19.377Z,71.00
2023-11-10T22:31:50.984Z,71.29
2023-11-10T22:34:22.712Z,70.96
2023-11-10T22:36:54.813Z,71.51
2023-11-10T22:39:27.251Z,71.46
2023-11-10T22:41:59.077Z,70.97
2023-11-10T22:44:30.465Z,70.70
2023-11-10T22:47:01.812Z,70.51
2023-11-10T22:49:33.319Z,70.15
2023-11-10T22:52:06.558Z,70.55
2023-11-10T22:54:38.078Z,70.99
2023-11-10T22:57:10.521Z,71.09
2023-11-10T22:59:42.131Z,71.47
2023-11-10T23:02:13.779Z,71.77
2023-11-10T23:04:46.451Z,71.97
2023-11-10T23:07:17.877Z,72.31
2023-11-10T23:09:49.731Z,72.12
2023-11-10T23:12:24.710Z,72.00
2023-11-10T23:14:56.169Z,71.42
2023-11-10T23:17:27.599Z,71.90
2023-11-10T23:20:00.194Z,72.89
2023-11-10T23:22:31.682Z,73.18
2023-11-10T23:25:03.104Z,73.52
2023-11-10T23:27:36.042Z,73.24
2023-11-10T23:30:09.103Z,73.32
2023-11-10T23:32:41.160Z,73.55
2023-11-10T23:35:13.433Z,73.47
2023-11-10T23:37:45.115Z,73.03
2023-11-10T23:40:17.207Z,73.39
2023-11-10T23:42:48.692Z,73.16
2023-11-10T23:45:20.136Z,73.53
2023-11-10T23:47:51.698Z,73.32
2023-11-10T23:50:23.093Z,73.74
2023-11-10T23:52:54.793Z,73.68
2023-11-10T23:55:27.320Z,73.74
2023-11-10T23:57:58.617Z,73.73
